createdAt,value
2023-03-08T00:01:04.455Z,5.26
2023-03-08T00:03:31.076Z,5.24
2023-03-08T00:05:57.712Z,5.23
2023-03-08T00:08:24.346Z,5.30
2023-03-08T00:10:50.994Z,5.34
2023-03-08T00:13:17.658Z,5.29
2023-03-08T00:15:44.493Z,5.28
2023-03-08T00:18:11.112Z,5.30
2023-03-08T00:20:37.632Z,5.34
2023-03-08T00:23:04.330Z,5.32
2023-03-08T00:25:30.966Z,5.32
2023-03-08T00:27:57.569Z,5.25
2023-03-08T00:30:24.162Z,5.26
2023-03-08T00:32:50.770Z,5.29
2023-03-08T00:35:20.007Z,5.29
2023-03-08T00:37:46.640Z,5.35
2023-03-08T00:40:13.396Z,5.26
2023-03-08T00:42:40.164Z,5.31
2023-03-08T00:45:07.393Z,5.28
2023-03-08T00:47:35.696Z,5.30
2023-03-08T00:50:02.257Z,5.27
2023-03-08T00:52:29.527Z,5.17
2023-03-08T00:54:56.120Z,5.22
2023-03-08T00:57:22.631Z,5.22
2023-03-08T00:59:49.186Z,5.13
2023-03-08T01:02:15.823Z,5.24
2023-03-08T01:04:42.354Z,5.20
2023-03-08T01:07:08.925Z,5.16
2023-03-08T01:09:35.453Z,5.13
2023-03-08T01:12:02.049Z,5.11
2023-03-08T01:14:30.097Z,5.13
2023-03-08T01:16:56.669Z,5.12
2023-03-08T01:19:23.245Z,5.09
2023-03-08T01:21:49.775Z,5.12
2023-03-08T01:24:16.368Z,5.11
2023-03-08T01:26:42.899Z,5.05
2023-03-08T01:29:09.532Z,4.98
2023-03-08T01:31:36.093Z,4.94
2023-03-08T01:36:40.872Z,4.82
2023-03-08T01:39:07.502Z,4.82
2023-03-08T01:41:34.174Z,4.77
2023-03-08T01:44:00.854Z,4.74
2023-03-08T01:46:34.424Z,4.81
2023-03-08T01:49:17.744Z,4.79
2023-03-08T01:52:12.619Z,4.71
2023-03-08T01:54:44.043Z,4.69
2023-03-08T01:57:31.698Z,4.65
2023-03-08T02:00:07.128Z,4.61
2023-03-08T02:02:41.911Z,4.61
2023-03-08T02:05:09.854Z,4.53
2023-03-08T02:07:36.489Z,4.66
2023-03-08T02:10:03.609Z,4.69
2023-03-08T02:12:30.564Z,4.61
2023-03-08T02:14:58.532Z,4.55
2023-03-08T02:17:26.570Z,4.60
2023-03-08T02:20:19.099Z,4.60
2023-03-08T02:22:47.129Z,4.54
2023-03-08T02:25:19.724Z,4.55
2023-03-08T02:27:46.631Z,4.62
2023-03-08T02:30:15.483Z,4.61
2023-03-08T02:32:42.071Z,4.71
2023-03-08T02:35:09.072Z,4.56
2023-03-08T02:37:35.685Z,4.58
2023-03-08T02:40:02.261Z,4.51
2023-03-08T02:42:28.812Z,4.55
2023-03-08T02:44:55.391Z,4.49
2023-03-08T02:47:21.919Z,4.53
2023-03-08T02:49:48.484Z,4.59
2023-03-08T02:52:15.158Z,4.57
2023-03-08T02:54:41.872Z,4.57
2023-03-08T02:57:08.434Z,4.58
2023-03-08T02:59:34.998Z,4.48
2023-03-08T03:02:01.755Z,4.58
2023-03-08T03:04:32.755Z,4.55
2023-03-08T03:06:59.743Z,4.60
2023-03-08T03:09:27.333Z,4.58
2023-03-08T03:11:54.016Z,4.64
2023-03-08T03:14:20.577Z,4.79
2023-03-08T03:19:18.572Z,4.69
2023-03-08T03:21:45.138Z,4.69
2023-03-08T03:24:11.800Z,4.65
2023-03-08T03:26:39.110Z,4.50
2023-03-08T03:29:05.722Z,4.66
2023-03-08T03:31:32.423Z,4.70
2023-03-08T03:33:59.078Z,4.62
2023-03-08T03:36:25.745Z,4.70
2023-03-08T03:38:52.410Z,4.59
2023-03-08T03:41:21.783Z,4.66
2023-03-08T03:43:49.568Z,4.63
2023-03-08T03:46:19.309Z,4.49
2023-03-08T03:48:46.641Z,4.43
2023-03-08T03:51:18.878Z,4.40
2023-03-08T03:53:46.268Z,4.46
2023-03-08T03:56:22.509Z,4.55
2023-03-08T03:58:50.145Z,4.57
2023-03-08T04:01:22.253Z,4.63
2023-03-08T04:03:49.356Z,4.54
2023-03-08T04:06:19.318Z,4.53
2023-03-08T04:11:27.240Z,4.49
2023-03-08T04:13:54.325Z,4.64
2023-03-08T04:16:24.694Z,4.56
2023-03-08T04:18:57.452Z,4.45
2023-03-08T04:21:24.800Z,4.48
2023-03-08T04:23:51.578Z,4.43
2023-03-08T04:28:51.683Z,4.46
2023-03-08T04:31:23.548Z,4.45
2023-03-08T04:36:22.503Z,4.70
2023-03-08T04:38:50.987Z,4.69
2023-03-08T04:41:18.523Z,4.72
2023-03-08T04:43:50.954Z,4.67
2023-03-08T04:46:19.403Z,4.68
2023-03-08T04:48:46.796Z,4.81
2023-03-08T04:53:46.936Z,4.69
2023-03-08T05:01:23.345Z,4.65
2023-03-08T05:03:51.358Z,4.55
2023-03-08T05:06:19.840Z,4.50
2023-03-08T05:08:46.749Z,4.66
2023-03-08T05:11:25.613Z,4.74
2023-03-08T05:13:54.789Z,4.72
2023-03-08T05:16:21.750Z,4.70
2023-03-08T05:18:48.760Z,4.70
2023-03-08T05:21:18.108Z,4.67
2023-03-08T05:23:44.855Z,4.74
2023-03-08T05:26:14.506Z,4.61
2023-03-08T05:28:44.042Z,4.68
2023-03-08T05:31:14.809Z,4.69
2023-03-08T05:33:42.689Z,4.74
2023-03-08T05:36:10.819Z,4.75
2023-03-08T05:38:37.377Z,4.79
2023-03-08T05:41:06.813Z,4.82
2023-03-08T05:43:34.306Z,4.84
2023-03-08T05:46:15.333Z,4.90
2023-03-08T05:48:42.208Z,4.93
2023-03-08T05:51:11.625Z,4.91
2023-03-08T05:53:38.266Z,4.96
2023-03-08T05:56:23.893Z,4.96
2023-03-08T05:58:51.822Z,4.98
2023-03-08T06:01:21.131Z,4.99
2023-03-08T06:03:49.931Z,5.07
2023-03-08T06:06:17.511Z,5.05
2023-03-08T06:08:44.556Z,5.03
2023-03-08T06:11:13.236Z,5.00
2023-03-08T06:13:40.516Z,4.98
2023-03-08T06:16:08.045Z,5.10
2023-03-08T06:18:37.085Z,5.16
2023-03-08T06:21:12.634Z,5.21
2023-03-08T06:23:40.016Z,5.11
2023-03-08T06:26:08.217Z,5.20
2023-03-08T06:28:35.829Z,5.17
2023-03-08T06:31:03.324Z,5.17
2023-03-08T06:33:31.776Z,5.16
2023-03-08T06:36:02.852Z,5.11
2023-03-08T06:38:33.297Z,5.05
2023-03-08T06:41:00.554Z,5.09
2023-03-08T06:43:27.922Z,5.15
2023-03-08T06:45:54.855Z,5.12
2023-03-08T06:48:21.506Z,5.24
2023-03-08T06:50:48.070Z,5.32
2023-03-08T06:53:14.799Z,5.19
2023-03-08T06:55:42.098Z,5.12
2023-03-08T06:58:09.272Z,5.06
2023-03-08T07:05:44.558Z,5.11
2023-03-08T07:08:11.197Z,5.11
2023-03-08T07:10:37.794Z,5.14
2023-03-08T07:13:04.440Z,5.40
2023-03-08T07:15:31.072Z,5.18
2023-03-08T07:17:57.773Z,5.15
2023-03-08T07:20:26.381Z,5.15
2023-03-08T07:22:54.126Z,5.11
2023-03-08T07:25:21.196Z,5.01
2023-03-08T07:27:47.962Z,4.96
2023-03-08T07:30:16.114Z,5.01
2023-03-08T07:32:43.197Z,5.02
2023-03-08T07:35:12.209Z,5.17
2023-03-08T07:37:39.092Z,4.97
2023-03-08T07:40:07.249Z,5.01
2023-03-08T07:45:07.292Z,5.14
2023-03-08T07:47:33.862Z,5.14
2023-03-08T07:50:00.427Z,5.17
2023-03-08T07:52:31.413Z,5.25
2023-03-08T07:54:58.109Z,5.24
2023-03-08T07:59:58.756Z,5.31
2023-03-08T08:02:25.366Z,5.27
2023-03-08T08:04:52.009Z,5.17
2023-03-08T08:07:18.623Z,5.18
2023-03-08T08:09:45.166Z,5.31
2023-03-08T08:12:11.808Z,5.42
2023-03-08T08:17:16.248Z,5.43
2023-03-08T08:19:42.850Z,5.53
2023-03-08T08:22:09.418Z,5.52
2023-03-08T08:24:36.054Z,5.63
2023-03-08T08:27:02.975Z,5.58
2023-03-08T08:29:29.633Z,5.63
2023-03-08T08:31:57.085Z,5.68
2023-03-08T08:34:24.038Z,5.66
2023-03-08T08:36:50.625Z,5.72
2023-03-08T08:39:17.262Z,5.81
2023-03-08T08:41:43.826Z,5.67
2023-03-08T08:44:10.419Z,5.73
2023-03-08T08:46:37.073Z,5.66
2023-03-08T08:49:05.620Z,5.61
2023-03-08T08:51:32.798Z,5.50
2023-03-08T08:53:59.660Z,5.48
2023-03-08T08:56:28.901Z,5.64
2023-03-08T08:58:57.302Z,5.69
2023-03-08T09:03:59.670Z,5.58
2023-03-08T09:06:28.553Z,5.49
2023-03-08T09:08:59.663Z,5.51
2023-03-08T09:11:27.581Z,5.42
2023-03-08T09:13:54.881Z,5.26
2023-03-08T09:16:39.505Z,5.30
2023-03-08T09:21:40.163Z,5.42
2023-03-08T09:26:40.117Z,5.49
2023-03-08T09:29:07.734Z,5.52
2023-03-08T09:31:36.724Z,5.61
2023-03-08T09:34:05.369Z,5.54
2023-03-08T09:36:31.972Z,5.57
2023-03-08T09:38:58.489Z,5.53
2023-03-08T09:41:49.599Z,5.56
2023-03-08T09:47:50.669Z,5.29
2023-03-08T09:50:29.565Z,5.32
2023-03-08T09:53:00.279Z,5.46
2023-03-08T09:55:33.512Z,5.54
2023-03-08T09:58:05.170Z,5.53
2023-03-08T10:00:37.637Z,5.64
2023-03-08T10:03:13.203Z,5.74
2023-03-08T10:06:03.973Z,5.74
2023-03-08T10:08:46.788Z,5.84
2023-03-08T10:11:21.230Z,5.83
2023-03-08T10:13:52.446Z,5.83
2023-03-08T10:16:26.263Z,5.80
2023-03-08T10:19:04.576Z,5.84
2023-03-08T10:21:33.991Z,6.01
2023-03-08T10:24:12.135Z,6.17
2023-03-08T10:26:38.688Z,6.25
2023-03-08T10:29:05.372Z,6.39
2023-03-08T10:31:33.923Z,6.40
2023-03-08T10:34:09.158Z,6.57
2023-03-08T10:36:48.279Z,6.67
2023-03-08T10:39:16.489Z,6.80
2023-03-08T10:41:46.301Z,7.01
2023-03-08T10:44:31.232Z,7.21
2023-03-08T10:46:57.775Z,7.39
2023-03-08T10:49:27.756Z,7.60
2023-03-08T10:52:00.444Z,7.68
2023-03-08T10:54:28.704Z,7.68
2023-03-08T10:56:59.185Z,7.71
2023-03-08T10:59:34.926Z,7.84
2023-03-08T11:02:13.550Z,7.96
2023-03-08T11:04:51.229Z,8.06
2023-03-08T11:07:24.769Z,8.12
2023-03-08T11:09:52.130Z,8.23
2023-03-08T11:12:26.368Z,8.29
2023-03-08T11:14:53.241Z,8.43
2023-03-08T11:17:35.645Z,8.56
2023-03-08T11:20:13.971Z,8.75
2023-03-08T11:22:49.381Z,8.91
2023-03-08T11:25:19.763Z,9.19
2023-03-08T11:31:05.919Z,9.37
2023-03-08T11:34:03.383Z,9.50
2023-03-08T11:37:07.089Z,9.56
2023-03-08T11:39:40.595Z,9.60
2023-03-08T11:42:29.960Z,9.64
2023-03-08T11:45:25.858Z,9.72
2023-03-08T11:48:13.975Z,9.82
2023-03-08T11:50:53.451Z,9.86
2023-03-08T11:53:22.556Z,9.92
2023-03-08T11:56:09.660Z,10.03
2023-03-08T11:58:53.514Z,10.13
2023-03-08T12:01:24.618Z,10.15
2023-03-08T12:03:56.030Z,10.17
2023-03-08T12:06:33.397Z,10.19
2023-03-08T12:09:18.957Z,10.25
2023-03-08T12:11:51.593Z,10.33
2023-03-08T12:14:30.926Z,10.38
2023-03-08T12:17:07.739Z,10.48
2023-03-08T12:19:48.534Z,10.53
2023-03-08T12:22:43.066Z,10.57
2023-03-08T12:25:22.877Z,10.66
2023-03-08T12:27:55.737Z,10.70
2023-03-08T12:30:33.928Z,10.78
2023-03-08T12:33:04.593Z,10.83
2023-03-08T12:35:34.516Z,10.85
2023-03-08T12:38:05.196Z,10.90
2023-03-08T12:40:44.463Z,10.93
2023-03-08T12:43:28.615Z,11.16
2023-03-08T12:46:04.700Z,11.06
2023-03-08T12:48:35.663Z,11.11
2023-03-08T12:51:08.355Z,11.04
2023-03-08T12:53:41.778Z,11.08
2023-03-08T12:56:11.246Z,11.06
2023-03-08T12:59:00.179Z,11.05
2023-03-08T13:01:29.620Z,11.14
2023-03-08T13:03:56.710Z,11.18
2023-03-08T13:06:23.315Z,11.19
2023-03-08T13:08:57.383Z,11.18
2023-03-08T13:11:27.041Z,11.27
2023-03-08T13:16:38.465Z,11.28
2023-03-08T13:19:13.887Z,11.29
2023-03-08T13:21:58.924Z,11.32
2023-03-08T13:24:36.665Z,11.34
2023-03-08T13:27:09.320Z,11.37
2023-03-08T13:29:36.372Z,11.39
2023-03-08T13:32:12.022Z,11.37
2023-03-08T13:34:38.894Z,11.44
2023-03-08T13:37:05.510Z,11.49
2023-03-08T13:39:32.359Z,11.54
2023-03-08T13:42:11.286Z,11.55
2023-03-08T13:47:37.847Z,11.72
2023-03-08T13:50:06.404Z,11.78
2023-03-08T13:55:21.062Z,11.82
2023-03-08T13:57:52.307Z,11.89
2023-03-08T14:00:18.900Z,11.90
2023-03-08T14:02:47.207Z,11.94
2023-03-08T14:05:18.264Z,11.91
2023-03-08T14:08:06.169Z,11.97
2023-03-08T14:11:01.202Z,12.05
2023-03-08T14:13:32.418Z,12.15
2023-03-08T14:16:01.859Z,12.14
2023-03-08T14:21:15.342Z,12.24
2023-03-08T14:23:54.795Z,12.24
2023-03-08T14:26:33.948Z,12.24
2023-03-08T14:29:21.869Z,12.21
2023-03-08T14:31:55.897Z,12.21
2023-03-08T14:34:26.146Z,12.23
2023-03-08T14:36:59.439Z,12.20
2023-03-08T14:39:28.688Z,12.17
2023-03-08T14:41:55.922Z,12.19
2023-03-08T14:44:29.550Z,12.21
2023-03-08T14:46:58.930Z,12.23
2023-03-08T14:49:28.405Z,12.29
2023-03-08T14:51:55.891Z,12.29
2023-03-08T14:54:33.310Z,12.29
2023-03-08T14:57:13.906Z,12.26
2023-03-08T14:59:41.636Z,12.26
2023-03-08T15:02:13.388Z,12.25
2023-03-08T15:04:40.589Z,12.24
2023-03-08T15:07:07.880Z,12.21
2023-03-08T15:09:34.958Z,12.20
2023-03-08T15:12:01.918Z,12.23
2023-03-08T15:14:30.641Z,12.18
2023-03-08T15:16:58.357Z,12.19
2023-03-08T15:19:25.233Z,12.18
2023-03-08T15:21:52.262Z,12.25
2023-03-08T15:24:19.396Z,12.22
2023-03-08T15:26:46.494Z,12.27
2023-03-08T15:29:28.469Z,12.32
2023-03-08T15:31:55.838Z,12.37
2023-03-08T15:34:22.557Z,12.43
2023-03-08T15:36:50.733Z,12.41
2023-03-08T15:39:17.837Z,12.38
2023-03-08T15:41:44.477Z,12.43
2023-03-08T15:44:11.005Z,12.33
2023-03-08T15:46:37.764Z,12.32
2023-03-08T15:49:04.941Z,12.28
2023-03-08T15:51:34.746Z,12.26
2023-03-08T15:54:02.864Z,12.23
2023-03-08T15:56:29.423Z,12.20
2023-03-08T15:58:56.782Z,12.21
2023-03-08T16:01:25.272Z,12.24
2023-03-08T16:03:53.487Z,12.22
2023-03-08T16:06:20.354Z,12.21
2023-03-08T16:08:47.205Z,12.12
2023-03-08T16:11:16.630Z,12.18
2023-03-08T16:13:43.254Z,12.17
2023-03-08T16:16:10.166Z,12.17
2023-03-08T16:18:37.248Z,12.12
2023-03-08T16:21:11.515Z,12.09
2023-03-08T16:23:39.360Z,12.13
2023-03-08T16:26:16.244Z,12.12
2023-03-08T16:28:45.259Z,12.10
2023-03-08T16:31:12.599Z,12.14
2023-03-08T16:33:39.904Z,12.14
2023-03-08T16:36:07.357Z,12.14
2023-03-08T16:41:12.599Z,12.00
2023-03-08T16:46:21.542Z,11.82
2023-03-08T16:51:23.876Z,11.88
2023-03-08T16:53:51.103Z,11.83
2023-03-08T16:56:25.935Z,11.83
2023-03-08T16:58:57.469Z,11.84
2023-03-08T17:01:24.761Z,11.82
2023-03-08T17:03:52.509Z,11.81
2023-03-08T17:06:22.242Z,11.74
2023-03-08T17:08:49.213Z,11.71
2023-03-08T17:11:17.867Z,11.69
2023-03-08T17:13:50.969Z,11.69
2023-03-08T17:16:23.144Z,11.63
2023-03-08T17:18:50.693Z,11.63
2023-03-08T17:21:19.075Z,11.59
2023-03-08T17:26:23.137Z,11.56
2023-03-08T17:28:54.179Z,11.56
2023-03-08T17:31:22.338Z,11.57
2023-03-08T17:33:49.214Z,11.62
2023-03-08T17:36:16.177Z,11.63
2023-03-08T17:38:43.113Z,11.59
2023-03-08T17:41:12.438Z,11.59
2023-03-08T17:43:41.157Z,11.56
2023-03-08T17:46:22.470Z,11.58
2023-03-08T17:48:50.771Z,11.52
2023-03-08T17:51:23.087Z,11.56
2023-03-08T17:53:50.050Z,11.57
2023-03-08T17:56:25.139Z,11.64
2023-03-08T17:58:52.470Z,11.62
2023-03-08T18:01:21.617Z,11.62
2023-03-08T18:03:48.636Z,11.60
2023-03-08T18:06:19.937Z,11.60
2023-03-08T18:08:46.522Z,11.61
2023-03-08T18:11:13.082Z,11.64
2023-03-08T18:13:40.807Z,11.57
2023-03-08T18:16:07.878Z,11.65
2023-03-08T18:18:34.468Z,11.58
2023-03-08T18:21:12.510Z,11.61
2023-03-08T18:23:39.629Z,11.55
2023-03-08T18:26:06.315Z,11.54
2023-03-08T18:28:34.350Z,11.55
2023-03-08T18:31:06.081Z,11.46
2023-03-08T18:33:32.634Z,11.45
2023-03-08T18:35:59.386Z,11.40
2023-03-08T18:38:26.371Z,11.39
2023-03-08T18:40:53.204Z,11.35
2023-03-08T18:43:19.836Z,11.30
2023-03-08T18:45:53.937Z,11.31
2023-03-08T18:48:22.001Z,11.24
2023-03-08T18:50:48.824Z,11.26
2023-03-08T18:53:18.133Z,11.25
2023-03-08T18:56:04.290Z,11.28
2023-03-08T18:58:31.108Z,11.26
2023-03-08T19:00:59.235Z,11.23
2023-03-08T19:06:04.975Z,11.20
2023-03-08T19:11:15.669Z,11.26
2023-03-08T19:13:43.450Z,11.27
2023-03-08T19:16:27.991Z,11.25
2023-03-08T19:19:00.123Z,11.30
2023-03-08T19:21:32.280Z,11.26
2023-03-08T19:26:36.176Z,11.24
2023-03-08T19:29:15.522Z,11.19
2023-03-08T19:31:43.465Z,11.18
2023-03-08T19:34:11.402Z,11.05
2023-03-08T19:36:38.210Z,11.12
2023-03-08T19:39:07.585Z,11.10
2023-03-08T19:41:34.587Z,11.11
2023-03-08T19:44:06.967Z,11.08
2023-03-08T19:46:38.540Z,11.00
2023-03-08T19:49:07.662Z,10.97
2023-03-08T19:51:34.694Z,10.94
2023-03-08T19:54:01.358Z,10.95
2023-03-08T19:56:27.924Z,11.04
2023-03-08T19:58:59.391Z,11.03
2023-03-08T20:01:27.072Z,10.99
2023-03-08T20:03:54.161Z,10.95
2023-03-08T20:06:29.183Z,10.91
2023-03-08T20:08:57.119Z,10.88
2023-03-08T20:11:24.674Z,10.85
2023-03-08T20:13:51.448Z,10.80
2023-03-08T20:16:19.711Z,10.73
2023-03-08T20:18:49.239Z,10.73
2023-03-08T20:21:20.039Z,10.83
2023-03-08T20:23:47.773Z,10.83
2023-03-08T20:26:14.397Z,10.83
2023-03-08T20:28:41.006Z,10.84
2023-03-08T20:31:12.571Z,10.80
2023-03-08T20:33:39.891Z,10.70
2023-03-08T20:36:06.870Z,10.78
2023-03-08T20:38:33.701Z,10.70
2023-03-08T20:41:03.282Z,10.67
2023-03-08T20:43:31.048Z,10.59
2023-03-08T20:46:00.252Z,10.56
2023-03-08T20:48:26.862Z,10.51
2023-03-08T20:50:59.558Z,10.39
2023-03-08T20:53:27.154Z,10.34
2023-03-08T20:58:25.827Z,10.25
2023-03-08T21:00:52.978Z,10.22
2023-03-08T21:03:19.560Z,10.21
2023-03-08T21:05:46.186Z,10.17
2023-03-08T21:08:12.771Z,10.14
2023-03-08T21:10:40.058Z,10.18
2023-03-08T21:13:07.072Z,10.11
2023-03-08T21:15:35.031Z,10.05
2023-03-08T21:18:01.736Z,10.08
2023-03-08T21:20:28.347Z,10.08
2023-03-08T21:25:26.194Z,10.10
2023-03-08T21:27:52.717Z,10.11
2023-03-08T21:30:19.578Z,10.15
2023-03-08T21:32:46.131Z,10.23
2023-03-08T21:35:12.843Z,10.21
2023-03-08T21:37:39.383Z,10.17
2023-03-08T21:40:07.417Z,10.15
2023-03-08T21:42:34.094Z,10.17
2023-03-08T21:45:00.836Z,10.27
2023-03-08T21:47:27.417Z,10.26
2023-03-08T21:49:53.937Z,10.27
2023-03-08T21:52:20.515Z,10.13
2023-03-08T21:54:47.037Z,10.03
2023-03-08T21:57:13.616Z,10.00
2023-03-08T21:59:40.232Z,9.99
2023-03-08T22:02:09.922Z,10.01
2023-03-08T22:04:38.087Z,9.95
2023-03-08T22:07:04.657Z,9.98
2023-03-08T22:09:31.193Z,10.01
2023-03-08T22:11:58.602Z,9.94
2023-03-08T22:14:25.249Z,10.00
2023-03-08T22:16:51.821Z,9.95
2023-03-08T22:19:18.369Z,9.88
2023-03-08T22:21:44.975Z,9.77
2023-03-08T22:24:11.593Z,9.80
2023-03-08T22:26:38.253Z,9.90
2023-03-08T22:29:05.062Z,9.93
2023-03-08T22:34:03.302Z,10.02
2023-03-08T22:36:29.907Z,10.14
2023-03-08T22:38:56.474Z,10.23
2023-03-08T22:41:25.363Z,10.23
2023-03-08T22:43:52.822Z,10.21
2023-03-08T22:46:22.149Z,10.23
2023-03-08T22:51:24.496Z,10.25
2023-03-08T22:53:51.439Z,10.28
2023-03-08T22:56:21.767Z,10.30
2023-03-08T22:58:48.984Z,10.36
2023-03-08T23:01:17.822Z,10.33
2023-03-08T23:03:44.777Z,10.33
2023-03-08T23:06:11.388Z,10.30
2023-03-08T23:08:38.402Z,10.28
2023-03-08T23:11:06.360Z,10.31
2023-03-08T23:13:34.631Z,10.33
2023-03-08T23:16:01.917Z,10.34
2023-03-08T23:18:29.043Z,10.34
2023-03-08T23:20:55.740Z,10.34
2023-03-08T23:23:25.236Z,10.33
2023-03-08T23:25:52.649Z,10.29
2023-03-08T23:28:19.884Z,10.40
2023-03-08T23:30:46.701Z,10.44
2023-03-08T23:33:13.481Z,10.43
2023-03-08T23:35:40.282Z,10.49
2023-03-08T23:38:07.308Z,10.48
2023-03-08T23:40:33.855Z,10.43
2023-03-08T23:43:00.455Z,10.48
2023-03-08T23:45:27.189Z,10.53
2023-03-08T23:47:53.743Z,10.47
2023-03-08T23:50:20.380Z,10.53
2023-03-08T23:52:46.932Z,10.59
2023-03-08T23:55:13.654Z,10.57
2023-03-08T23:57:40.216Z,10.54
